AEE3FT EDDF-LGAV
Flight info
| Callsign | AEE3FT |
|---|---|
| Flight time | N/A |
| Altitude | 37000 |
| Route | CINDY7S CINDY Z74 LAMPU DCT NOMBO Y161 MAH L173 OTT M867 RADIZ DCT NEMEK DCT GLOMY DCT INLOT DCT PINDO UL607 XORKI XORKI1W |
| Aircraft | A320/M-SDE3FGHIRWY/LB1 |
Departure
| Time | 2026-05-07 14:41 |
|---|---|
| Airport | Frankfurt Main Airport (EDDF) |
Arrival
| Time | N/A |
|---|---|
| Airport | Athens Eleftherios Venizelos International Airport (LGAV) |
| Time | Latitude | Longitude | Altitude | Speed | Heading |
|---|---|---|---|---|---|
| 2026-05-07 14:11 | 50.04390 | 8.56168 | 362 ft | 0 kts | 155° |
| 2026-05-07 14:27 | 50.04402 | 8.56160 | 363 ft | 4 kts | 155° |
| 2026-05-07 14:28 | 50.04427 | 8.56144 | 358 ft | 4 kts | 169° |
| 2026-05-07 14:28 | 50.04452 | 8.56145 | 356 ft | 4 kts | 212° |
| 2026-05-07 14:28 | 50.04463 | 8.56163 | 364 ft | 1 kts | 250° |
| 2026-05-07 14:28 | 50.04464 | 8.56167 | 363 ft | 2 kts | 250° |
| 2026-05-07 14:30 | 50.04464 | 8.56168 | 363 ft | 0 kts | 250° |
| 2026-05-07 14:34 | 50.04462 | 8.56157 | 358 ft | 2 kts | 250° |
| 2026-05-07 14:34 | 50.04454 | 8.56124 | 365 ft | 4 kts | 250° |
| 2026-05-07 14:34 | 50.04439 | 8.56061 | 361 ft | 9 kts | 249° |
| 2026-05-07 14:34 | 50.04415 | 8.55963 | 357 ft | 11 kts | 246° |
| 2026-05-07 14:35 | 50.04351 | 8.55919 | 361 ft | 12 kts | 160° |
| 2026-05-07 14:35 | 50.04257 | 8.55956 | 357 ft | 16 kts | 203° |
| 2026-05-07 14:35 | 50.04205 | 8.55794 | 360 ft | 18 kts | 251° |
| 2026-05-07 14:35 | 50.04157 | 8.55596 | 357 ft | 21 kts | 249° |
| 2026-05-07 14:36 | 50.04104 | 8.55381 | 355 ft | 22 kts | 250° |
| 2026-05-07 14:36 | 50.04052 | 8.55153 | 360 ft | 23 kts | 250° |
| 2026-05-07 14:36 | 50.03992 | 8.54911 | 359 ft | 25 kts | 249° |
| 2026-05-07 14:36 | 50.03929 | 8.54643 | 353 ft | 27 kts | 250° |
| 2026-05-07 14:37 | 50.03863 | 8.54377 | 352 ft | 26 kts | 243° |
| 2026-05-07 14:37 | 50.03707 | 8.53853 | 343 ft | 28 kts | 244° |
| 2026-05-07 14:37 | 50.03645 | 8.53569 | 337 ft | 28 kts | 248° |
| 2026-05-07 14:38 | 50.03574 | 8.53282 | 335 ft | 29 kts | 250° |
| 2026-05-07 14:38 | 50.03500 | 8.52976 | 335 ft | 31 kts | 246° |
| 2026-05-07 14:38 | 50.03425 | 8.52693 | 332 ft | 18 kts | 250° |
| 2026-05-07 14:38 | 50.03366 | 8.52594 | 335 ft | 0 kts | 184° |
| 2026-05-07 14:39 | 50.03364 | 8.52594 | 335 ft | 0 kts | 182° |
| 2026-05-07 14:39 | 50.03362 | 8.52594 | 335 ft | 1 kts | 182° |
| 2026-05-07 14:39 | 50.03360 | 8.52594 | 335 ft | 0 kts | 181° |
| 2026-05-07 14:39 | 50.03355 | 8.52594 | 335 ft | 6 kts | 181° |
| 2026-05-07 14:40 | 50.03103 | 8.52589 | 335 ft | 70 kts | 180° |
| 2026-05-07 14:40 | 50.02413 | 8.52592 | 335 ft | 125 kts | 180° |
| 2026-05-07 14:40 | 50.01406 | 8.52603 | 335 ft | 165 kts | 181° |
| 2026-05-07 14:40 | 50.00194 | 8.52637 | 731 ft | 176 kts | 181° |
| 2026-05-07 14:41 | 49.98973 | 8.52637 | 1472 ft | 176 kts | 180° |
| 2026-05-07 14:41 | 49.97732 | 8.52649 | 2050 ft | 184 kts | 180° |
| 2026-05-07 14:41 | 49.96423 | 8.52853 | 2532 ft | 193 kts | 164° |
| 2026-05-07 14:41 | 49.95289 | 8.54013 | 2826 ft | 212 kts | 126° |
| 2026-05-07 14:42 | 49.94544 | 8.56105 | 3139 ft | 231 kts | 112° |
| 2026-05-07 14:42 | 49.93917 | 8.58476 | 3682 ft | 248 kts | 111° |
| 2026-05-07 14:42 | 49.93229 | 8.61058 | 4225 ft | 266 kts | 112° |
| 2026-05-07 14:42 | 49.92460 | 8.63714 | 5037 ft | 273 kts | 115° |
| 2026-05-07 14:43 | 49.91621 | 8.66380 | 5908 ft | 277 kts | 117° |
| 2026-05-07 14:43 | 49.90729 | 8.69056 | 6771 ft | 281 kts | 118° |
| 2026-05-07 14:43 | 49.89797 | 8.71736 | 7574 ft | 285 kts | 119° |
| 2026-05-07 14:43 | 49.88831 | 8.74438 | 8399 ft | 288 kts | 119° |
| 2026-05-07 14:44 | 49.87844 | 8.77171 | 9219 ft | 292 kts | 119° |
| 2026-05-07 14:44 | 49.86841 | 8.79936 | 10019 ft | 296 kts | 119° |
| 2026-05-07 14:44 | 49.85814 | 8.82773 | 10449 ft | 313 kts | 119° |
| 2026-05-07 14:44 | 49.84710 | 8.85824 | 10636 ft | 336 kts | 119° |
| 2026-05-07 14:45 | 49.83529 | 8.89077 | 10812 ft | 356 kts | 119° |
| 2026-05-07 14:45 | 49.82296 | 8.92465 | 11026 ft | 363 kts | 119° |
| 2026-05-07 14:45 | 49.81054 | 8.95873 | 11054 ft | 364 kts | 120° |
| 2026-05-07 14:45 | 49.79806 | 8.99284 | 11066 ft | 365 kts | 120° |
| 2026-05-07 14:46 | 49.78550 | 9.02718 | 11696 ft | 368 kts | 119° |
| 2026-05-07 14:46 | 49.77284 | 9.06181 | 12393 ft | 371 kts | 119° |
| 2026-05-07 14:46 | 49.76180 | 9.09804 | 13036 ft | 375 kts | 109° |
| 2026-05-07 14:46 | 49.75477 | 9.13703 | 13714 ft | 378 kts | 103° |
| 2026-05-07 14:47 | 49.74611 | 9.17555 | 14306 ft | 382 kts | 115° |
| 2026-05-07 14:47 | 49.73275 | 9.21114 | 14861 ft | 385 kts | 126° |
| 2026-05-07 14:47 | 49.72158 | 9.23245 | 15224 ft | 387 kts | 132° |